createdAt,value
2018-04-22T00:01:37.357Z,19.93
2018-04-22T00:04:05.117Z,21.30
2018-04-22T00:06:32.877Z,22.40
2018-04-22T00:09:00.641Z,23.50
2018-04-22T00:11:28.193Z,21.37
2018-04-22T00:13:55.664Z,25.37
2018-04-22T00:16:23.432Z,20.80
2018-04-22T00:18:51.195Z,24.73
2018-04-22T00:21:19.365Z,22.03
2018-04-22T00:23:46.928Z,20.57
2018-04-22T00:26:14.589Z,20.17
2018-04-22T00:28:42.355Z,18.80
2018-04-22T00:31:10.329Z,22.20
2018-04-22T00:33:38.712Z,23.17
2018-04-22T00:36:06.580Z,23.77
2018-04-22T00:38:34.344Z,23.37
2018-04-22T00:41:02.108Z,22.90
2018-04-22T00:43:30.092Z,21.47
2018-04-22T00:45:58.324Z,21.57
2018-04-22T00:48:26.013Z,24.33
2018-04-22T00:50:53.497Z,22.23
2018-04-22T00:53:22.068Z,24.30
2018-04-22T00:55:49.833Z,21.10
2018-04-22T00:58:17.492Z,21.43
2018-04-22T01:00:45.873Z,23.73
2018-04-22T01:03:13.644Z,21.63
2018-04-22T01:05:42.121Z,22.70
2018-04-22T01:08:09.886Z,21.33
2018-04-22T01:10:37.648Z,22.13
2018-04-22T01:13:05.924Z,25.47
2018-04-22T01:15:34.160Z,23.23
2018-04-22T01:18:01.780Z,23.47
2018-04-22T01:20:30.761Z,24.20
2018-04-22T01:22:58.524Z,25.43
2018-04-22T01:25:26.291Z,24.87
2018-04-22T01:27:55.591Z,22.57
2018-04-22T01:30:23.876Z,22.63
2018-04-22T01:32:51.984Z,23.47
2018-04-22T01:35:19.717Z,24.33
2018-04-22T01:37:47.473Z,25.30
2018-04-22T01:40:15.096Z,21.17
2018-04-22T01:42:42.699Z,22.23
2018-04-22T01:45:10.364Z,22.40
2018-04-22T01:47:38.340Z,21.50
2018-04-22T01:50:05.996Z,23.97
2018-04-22T01:52:33.472Z,23.80
2018-04-22T01:55:01.945Z,24.60
2018-04-22T01:57:29.602Z,26.63
2018-04-22T01:59:57.369Z,26.70
2018-04-22T02:02:24.848Z,25.33
2018-04-22T02:04:53.815Z,27.17
2018-04-22T02:07:21.385Z,26.43
2018-04-22T02:09:49.709Z,25.83
2018-04-22T02:12:17.520Z,24.47
2018-04-22T02:14:45.005Z,23.47
2018-04-22T02:17:13.369Z,25.93
2018-04-22T02:19:41.129Z,27.60
2018-04-22T02:22:09.103Z,25.73
2018-04-22T02:24:36.966Z,24.97
2018-04-22T02:27:04.729Z,25.67
2018-04-22T02:29:32.392Z,26.40
2018-04-22T02:32:00.056Z,26.53
2018-04-22T02:34:27.778Z,27.23
2018-04-22T02:36:56.104Z,25.63
2018-04-22T02:39:23.664Z,26.37
2018-04-22T02:41:51.249Z,28.83
2018-04-22T02:44:18.989Z,31.20
2018-04-22T02:46:46.657Z,28.90
2018-04-22T02:49:15.029Z,28.20
2018-04-22T02:51:42.900Z,29.00
2018-04-22T02:54:10.480Z,27.10
2018-04-22T02:56:39.040Z,28.63
2018-04-22T02:59:06.704Z,26.00
2018-04-22T03:01:34.469Z,23.93
2018-04-22T03:04:02.343Z,27.77
2018-04-22T03:06:31.537Z,25.30
2018-04-22T03:08:59.297Z,26.43
2018-04-22T03:11:27.069Z,25.23
2018-04-22T03:13:55.136Z,25.87
2018-04-22T03:16:22.804Z,30.63
2018-04-22T03:18:50.567Z,26.27
2018-04-22T03:21:18.438Z,31.83
2018-04-22T03:23:46.016Z,30.50
2018-04-22T03:26:14.480Z,28.87
2018-04-22T03:28:42.448Z,30.13
2018-04-22T03:31:10.240Z,28.90
2018-04-22T03:33:38.796Z,29.57
2018-04-22T03:36:06.460Z,32.13
2018-04-22T03:38:34.332Z,29.17
2018-04-22T03:41:02.205Z,30.17
2018-04-22T03:43:30.472Z,30.53
2018-04-22T03:45:58.236Z,33.47
2018-04-22T03:48:26.192Z,32.00
2018-04-22T03:50:53.808Z,28.50
2018-04-22T03:53:21.436Z,29.50
2018-04-22T03:55:50.129Z,28.90
2018-04-22T03:58:18.700Z,27.37
2018-04-22T04:00:46.268Z,26.93
2018-04-22T04:03:13.824Z,30.23
2018-04-22T04:05:41.903Z,30.87
2018-04-22T04:08:10.176Z,31.73
2018-04-22T04:10:37.944Z,26.90
2018-04-22T04:13:05.713Z,30.10
2018-04-22T04:15:33.473Z,32.17
2018-04-22T04:21:28.403Z,33.50
2018-04-22T04:27:23.931Z,33.67
2018-04-22T04:29:51.668Z,28.90
2018-04-22T04:32:19.356Z,28.40
2018-04-22T04:34:47.222Z,28.50
2018-04-22T04:37:15.512Z,34.07
2018-04-22T04:39:43.747Z,30.33
2018-04-22T04:42:11.439Z,30.43
2018-04-22T04:44:38.909Z,34.77
2018-04-22T04:47:07.144Z,32.33
2018-04-22T04:49:34.691Z,35.10
2018-04-22T04:52:02.297Z,31.70
2018-04-22T04:54:29.771Z,32.10
2018-04-22T04:56:58.037Z,32.20
2018-04-22T04:59:25.906Z,34.83
2018-04-22T05:01:53.380Z,31.40
2018-04-22T05:04:21.615Z,33.03
2018-04-22T05:06:49.112Z,33.17
2018-04-22T05:09:18.180Z,34.50
2018-04-22T05:11:45.652Z,34.47
2018-04-22T05:14:13.231Z,37.97
2018-04-22T05:16:41.896Z,37.27
2018-04-22T05:19:09.474Z,38.27
2018-04-22T05:21:37.736Z,38.97
2018-04-22T05:24:05.348Z,33.70
2018-04-22T05:26:32.819Z,28.77
2018-04-22T05:29:00.517Z,31.83
2018-04-22T05:31:28.279Z,26.73
2018-04-22T05:33:56.056Z,25.60
2018-04-22T05:36:24.965Z,26.93
2018-04-22T05:38:52.600Z,27.80
2018-04-22T05:41:20.504Z,24.43
2018-04-22T05:43:47.977Z,25.93
2018-04-22T05:46:15.486Z,27.43
2018-04-22T05:48:43.148Z,28.93
2018-04-22T05:51:10.580Z,27.13
2018-04-22T05:53:38.365Z,24.50
2018-04-22T05:56:05.854Z,25.70
2018-04-22T05:58:33.336Z,26.03
2018-04-22T06:01:00.956Z,27.23
2018-04-22T06:03:29.222Z,26.23
2018-04-22T06:05:56.692Z,27.53
2018-04-22T06:08:24.984Z,25.80
2018-04-22T06:10:53.900Z,25.33
2018-04-22T06:13:21.368Z,26.03
2018-04-22T06:15:49.292Z,26.70
2018-04-22T06:18:17.652Z,27.00
2018-04-22T06:20:45.416Z,28.67
2018-04-22T06:23:14.671Z,31.27
2018-04-22T06:25:42.173Z,26.87
2018-04-22T06:28:11.152Z,25.70
2018-04-22T06:30:38.733Z,26.90
2018-04-22T06:33:06.796Z,26.47
2018-04-22T06:35:34.564Z,27.03
2018-04-22T06:38:02.332Z,27.50
2018-04-22T06:40:30.848Z,27.60
2018-04-22T06:42:59.491Z,28.17
2018-04-22T06:45:27.062Z,24.90
2018-04-22T06:47:54.825Z,27.37
2018-04-22T06:50:23.101Z,27.57
2018-04-22T06:52:50.604Z,25.57
2018-04-22T06:55:18.078Z,28.10
2018-04-22T06:57:45.776Z,27.73
2018-04-22T07:00:13.545Z,26.37
2018-04-22T07:02:41.125Z,26.73
2018-04-22T07:05:09.588Z,26.43
2018-04-22T07:07:38.072Z,26.30
2018-04-22T07:10:06.957Z,29.27
2018-04-22T07:12:36.043Z,28.17
2018-04-22T07:15:03.518Z,28.47
2018-04-22T07:17:32.092Z,29.10
2018-04-22T07:19:59.857Z,29.80
2018-04-22T07:22:27.832Z,36.67
2018-04-22T07:24:56.316Z,32.60
2018-04-22T07:27:24.551Z,31.53
2018-04-22T07:29:52.185Z,27.47
2018-04-22T07:32:19.668Z,27.40
2018-04-22T07:34:47.147Z,28.97
2018-04-22T07:37:15.855Z,27.23
2018-04-22T07:39:44.127Z,28.80
2018-04-22T07:42:11.689Z,26.10
2018-04-22T07:44:40.013Z,25.63
2018-04-22T07:47:07.693Z,25.13
2018-04-22T07:49:35.186Z,26.53
2018-04-22T07:52:03.968Z,25.23
2018-04-22T07:54:31.437Z,25.60
2018-04-22T07:56:59.672Z,27.17
2018-04-22T07:59:27.984Z,25.67
2018-04-22T08:01:56.221Z,24.97
2018-04-22T08:04:23.696Z,25.77
2018-04-22T08:06:51.481Z,24.47
2018-04-22T08:09:19.860Z,23.13
2018-04-22T08:11:47.624Z,22.80
2018-04-22T08:14:15.596Z,19.63
2018-04-22T08:16:43.837Z,22.50
2018-04-22T08:19:11.307Z,19.50
2018-04-22T08:21:39.088Z,18.80
2018-04-22T08:24:06.659Z,19.80
2018-04-22T08:26:35.548Z,16.03
2018-04-22T08:29:03.821Z,15.17
2018-04-22T08:31:31.589Z,15.43
2018-04-22T08:34:00.273Z,14.57
2018-04-22T08:36:28.547Z,17.10
2018-04-22T08:38:56.018Z,14.17
2018-04-22T08:41:24.385Z,16.60
2018-04-22T08:43:52.143Z,15.63
2018-04-22T08:46:19.810Z,15.70
2018-04-22T08:48:47.511Z,15.27
2018-04-22T08:51:15.336Z,17.73
2018-04-22T08:53:43.104Z,13.17
2018-04-22T08:56:11.509Z,12.97
2018-04-22T08:58:39.125Z,15.40
2018-04-22T09:01:06.703Z,13.50
2018-04-22T09:03:34.358Z,13.97
2018-04-22T09:06:01.923Z,15.83
2018-04-22T09:08:29.451Z,12.60
2018-04-22T09:10:57.220Z,15.83
2018-04-22T09:13:24.810Z,18.73
2018-04-22T09:15:53.541Z,13.97
2018-04-22T09:18:21.048Z,12.10
2018-04-22T09:20:48.567Z,14.73
2018-04-22T09:23:16.081Z,13.97
2018-04-22T09:25:44.444Z,12.40
2018-04-22T09:28:12.519Z,13.37
2018-04-22T09:30:40.891Z,13.70
2018-04-22T09:33:08.495Z,11.50
2018-04-22T09:35:36.015Z,14.27
2018-04-22T09:38:04.294Z,15.40
2018-04-22T09:40:31.848Z,12.40
2018-04-22T09:42:59.322Z,12.17
2018-04-22T09:45:27.993Z,13.50
2018-04-22T09:47:55.756Z,10.93
2018-04-22T09:50:23.622Z,11.73
2018-04-22T09:52:51.388Z,11.20
2018-04-22T09:55:19.154Z,9.57
2018-04-22T09:57:47.515Z,11.30
2018-04-22T10:00:20.667Z,10.27
2018-04-22T10:02:48.237Z,11.83
2018-04-22T10:05:15.712Z,10.17
2018-04-22T10:07:43.292Z,9.83
2018-04-22T10:10:10.861Z,10.07
2018-04-22T10:12:39.533Z,12.50
2018-04-22T10:15:07.135Z,9.23
2018-04-22T10:17:34.930Z,9.10
2018-04-22T10:20:02.432Z,8.83
2018-04-22T10:22:29.973Z,7.87
2018-04-22T10:24:57.440Z,8.53
2018-04-22T10:27:24.905Z,9.17
2018-04-22T10:29:52.673Z,9.60
2018-04-22T10:32:20.940Z,7.73
2018-04-22T10:34:48.596Z,9.37
2018-04-22T10:37:16.569Z,6.63
2018-04-22T10:39:44.116Z,6.90
2018-04-22T10:42:11.575Z,8.83
2018-04-22T10:44:39.114Z,8.77
2018-04-22T10:47:06.576Z,6.07
2018-04-22T10:49:34.068Z,7.23
2018-04-22T10:52:01.925Z,4.77
2018-04-22T10:54:29.692Z,7.90
2018-04-22T10:56:57.252Z,7.67
2018-04-22T10:59:24.812Z,6.73
2018-04-22T11:01:52.324Z,7.67
2018-04-22T11:04:19.796Z,7.53
2018-04-22T11:06:48.112Z,8.73
2018-04-22T11:09:15.971Z,6.53
2018-04-22T11:11:43.862Z,3.77
2018-04-22T11:14:12.116Z,6.80
2018-04-22T11:16:39.639Z,6.70
2018-04-22T11:19:07.944Z,7.50
2018-04-22T11:21:35.511Z,6.27
2018-04-22T11:24:03.173Z,4.87
2018-04-22T11:26:30.828Z,6.07
2018-04-22T11:28:58.700Z,4.60
2018-04-22T11:31:26.464Z,6.43
2018-04-22T11:33:54.429Z,5.95
2018-04-22T11:36:22.213Z,5.72
2018-04-22T11:38:50.481Z,4.03
2018-04-22T11:41:19.360Z,7.20
2018-04-22T11:43:46.827Z,5.17
2018-04-22T11:46:14.288Z,5.60
2018-04-22T11:48:41.840Z,3.20
2018-04-22T11:51:09.324Z,4.37
2018-04-22T11:53:37.809Z,4.83
2018-04-22T11:56:06.164Z,3.17
2018-04-22T11:58:33.733Z,3.00
2018-04-22T12:01:01.964Z,5.03
2018-04-22T12:03:29.868Z,4.87
2018-04-22T12:05:57.323Z,6.37
2018-04-22T12:08:25.605Z,3.63
2018-04-22T12:10:54.085Z,5.80
2018-04-22T12:13:21.640Z,2.83
2018-04-22T12:15:49.192Z,4.27
2018-04-22T12:18:17.164Z,4.27
2018-04-22T12:20:44.735Z,5.57
2018-04-22T12:23:12.964Z,2.83
2018-04-22T12:25:40.468Z,5.80
2018-04-22T12:28:08.700Z,3.40
2018-04-22T12:30:36.173Z,3.80
2018-04-22T12:33:03.852Z,2.73
2018-04-22T12:35:31.316Z,3.77
2018-04-22T12:37:59.553Z,4.47
2018-04-22T12:40:27.144Z,3.20
2018-04-22T12:42:54.625Z,4.30
2018-04-22T12:45:22.880Z,5.97
2018-04-22T12:47:50.438Z,3.60
2018-04-22T12:50:18.724Z,3.53
2018-04-22T12:52:46.993Z,3.40
2018-04-22T12:55:14.961Z,3.87
2018-04-22T12:57:42.428Z,5.40
2018-04-22T13:00:10.661Z,3.57
2018-04-22T13:02:38.305Z,4.47
2018-04-22T13:05:05.771Z,5.53
2018-04-22T13:07:33.268Z,4.73
2018-04-22T13:10:00.931Z,5.47
2018-04-22T13:12:28.703Z,6.17
2018-04-22T13:14:57.179Z,4.47
2018-04-22T13:17:25.728Z,5.97
2018-04-22T13:19:53.416Z,3.57
2018-04-22T13:22:21.276Z,3.67
2018-04-22T13:24:49.047Z,3.50
2018-04-22T13:27:16.512Z,5.23
2018-04-22T13:29:44.793Z,3.90
2018-04-22T13:32:13.360Z,4.00
2018-04-22T13:34:41.024Z,7.57
2018-04-22T13:37:08.921Z,3.83
2018-04-22T13:39:37.272Z,4.00
2018-04-22T13:42:04.825Z,4.87
2018-04-22T13:44:32.592Z,4.83
2018-04-22T13:47:00.069Z,5.67
2018-04-22T13:49:28.319Z,4.00
2018-04-22T13:51:55.993Z,3.93
2018-04-22T13:54:24.405Z,4.47
2018-04-22T13:56:52.436Z,8.43
2018-04-22T13:59:20.197Z,5.13
2018-04-22T14:01:49.161Z,5.80
2018-04-22T14:04:16.632Z,3.23
2018-04-22T14:06:44.321Z,5.53
2018-04-22T14:09:12.557Z,5.33
2018-04-22T14:11:40.021Z,5.10
2018-04-22T14:14:07.808Z,5.03
2018-04-22T14:16:35.368Z,3.77
2018-04-22T14:19:03.030Z,4.17
2018-04-22T14:21:30.901Z,6.30
2018-04-22T14:23:58.664Z,3.83
2018-04-22T14:26:26.435Z,3.07
2018-04-22T14:28:54.899Z,4.83
2018-04-22T14:31:22.359Z,4.87
2018-04-22T14:33:49.828Z,3.37
2018-04-22T14:36:17.516Z,5.33
2018-04-22T14:38:45.255Z,6.37
2018-04-22T14:41:13.056Z,4.57
2018-04-22T14:43:47.334Z,5.23
2018-04-22T14:46:15.252Z,6.03
2018-04-22T14:48:54.748Z,4.80
2018-04-22T14:51:23.396Z,5.20
2018-04-22T14:53:50.896Z,5.67
2018-04-22T14:56:19.168Z,4.90
2018-04-22T14:58:47.953Z,5.83
2018-04-22T15:01:15.416Z,5.37
2018-04-22T15:03:43.681Z,5.73
2018-04-22T15:06:11.543Z,3.07
2018-04-22T15:08:39.093Z,2.87
2018-04-22T15:11:06.668Z,4.10
2018-04-22T15:13:34.537Z,6.33
2018-04-22T15:16:02.118Z,4.47
2018-04-22T15:18:30.576Z,4.00
2018-04-22T15:20:58.748Z,8.83
2018-04-22T15:23:26.417Z,2.97
2018-04-22T15:25:54.652Z,6.07
2018-04-22T15:28:22.322Z,4.57
2018-04-22T15:30:49.828Z,5.73
2018-04-22T15:33:18.188Z,5.17
2018-04-22T15:35:45.952Z,4.23
2018-04-22T15:38:13.513Z,5.50
2018-04-22T15:40:41.047Z,5.83
2018-04-22T15:43:08.513Z,5.07
2018-04-22T15:45:35.976Z,3.13
2018-04-22T15:48:03.752Z,5.20
2018-04-22T15:50:31.323Z,6.63
2018-04-22T15:52:59.584Z,3.93
2018-04-22T15:55:27.553Z,6.13
2018-04-22T15:57:55.208Z,6.20
2018-04-22T16:00:22.772Z,3.60
2018-04-22T16:02:50.433Z,4.40
2018-04-22T16:05:18.099Z,4.63
2018-04-22T16:07:45.568Z,5.67
2018-04-22T16:10:13.924Z,7.47
2018-04-22T16:12:43.640Z,8.27
2018-04-22T16:15:11.100Z,3.50
2018-04-22T16:17:39.879Z,7.23
2018-04-22T16:20:07.548Z,3.20
2018-04-22T16:22:36.511Z,7.60
2018-04-22T16:25:03.977Z,8.13
2018-04-22T16:27:31.456Z,5.93
2018-04-22T16:29:58.996Z,6.17
2018-04-22T16:32:26.572Z,4.70
2018-04-22T16:34:54.961Z,5.90
2018-04-22T16:37:23.644Z,5.80
2018-04-22T16:39:51.296Z,7.13
2018-04-22T16:42:18.856Z,8.13
2018-04-22T16:44:46.828Z,4.10
2018-04-22T16:47:14.303Z,7.57
2018-04-22T16:49:42.536Z,5.20
2018-04-22T16:52:10.061Z,3.83
2018-04-22T16:54:37.528Z,7.30
2018-04-22T16:57:05.240Z,7.13
2018-04-22T16:59:32.709Z,7.63
2018-04-22T17:02:00.981Z,5.03
2018-04-22T17:04:28.733Z,4.13
2018-04-22T17:06:56.192Z,8.27
2018-04-22T17:09:23.657Z,34.80
2018-04-22T17:11:52.134Z,100.77
2018-04-22T17:14:20.444Z,8.30
2018-04-22T17:16:47.972Z,32.87
2018-04-22T17:19:15.836Z,7.83
2018-04-22T17:21:43.396Z,32.23
2018-04-22T17:24:11.227Z,20.93
2018-04-22T17:26:39.412Z,36.37
2018-04-22T17:29:06.889Z,21.30
2018-04-22T17:31:34.657Z,13.03
2018-04-22T17:34:02.234Z,8.87
2018-04-22T17:36:30.459Z,5.17
2018-04-22T17:38:58.252Z,6.03
2018-04-22T17:41:25.817Z,11.03
2018-04-22T17:43:53.296Z,10.27
2018-04-22T17:46:21.888Z,4.30
2018-04-22T17:48:49.352Z,14.47
2018-04-22T17:51:16.829Z,7.80
2018-04-22T17:53:44.390Z,5.67
2018-04-22T17:56:11.997Z,7.97
2018-04-22T17:58:40.277Z,10.27
2018-04-22T18:01:07.829Z,6.13
2018-04-22T18:03:35.693Z,6.87
2018-04-22T18:06:03.252Z,5.43
2018-04-22T18:08:30.721Z,7.50
2018-04-22T18:10:59.125Z,9.60
2018-04-22T18:13:26.654Z,7.03
2018-04-22T18:15:54.972Z,5.00
2018-04-22T18:18:22.884Z,7.77
2018-04-22T18:20:50.881Z,10.47
2018-04-22T18:23:19.848Z,6.70
2018-04-22T18:25:47.613Z,6.67
2018-04-22T18:28:15.178Z,7.00
2018-04-22T18:30:42.654Z,6.50
2018-04-22T18:33:11.065Z,6.97
2018-04-22T18:35:38.620Z,6.83
2018-04-22T18:38:06.179Z,10.70
2018-04-22T18:40:34.004Z,5.20
2018-04-22T18:43:01.677Z,6.70
2018-04-22T18:45:29.937Z,6.40
2018-04-22T18:47:58.528Z,10.93
2018-04-22T18:50:26.002Z,5.40
2018-04-22T18:52:54.252Z,6.00
2018-04-22T18:55:21.843Z,7.37
2018-04-22T18:57:49.339Z,7.57
2018-04-22T19:00:16.836Z,10.63
2018-04-22T19:02:44.901Z,7.33
2018-04-22T19:05:12.564Z,9.53
2018-04-22T19:07:40.176Z,10.33
2018-04-22T19:10:07.886Z,9.43
2018-04-22T19:12:35.609Z,7.53
2018-04-22T19:15:03.117Z,8.90
2018-04-22T19:17:30.871Z,7.60
2018-04-22T19:19:59.768Z,7.53
2018-04-22T19:22:27.330Z,7.33
2018-04-22T19:24:55.732Z,7.97
2018-04-22T19:27:24.036Z,7.60
2018-04-22T19:29:51.507Z,12.20
2018-04-22T19:32:19.057Z,8.00
2018-04-22T19:34:46.815Z,7.63
2018-04-22T19:37:15.252Z,10.20
2018-04-22T19:39:42.867Z,11.63
2018-04-22T19:42:10.424Z,9.67
2018-04-22T19:44:38.344Z,7.37
2018-04-22T19:47:06.110Z,6.67
2018-04-22T19:49:33.680Z,7.67
2018-04-22T19:52:02.152Z,8.60
2018-04-22T19:54:29.724Z,9.13
2018-04-22T19:56:57.376Z,8.97
2018-04-22T19:59:24.941Z,11.87
2018-04-22T20:01:53.011Z,7.53
2018-04-22T20:04:20.573Z,6.77
2018-04-22T20:06:48.436Z,7.53
2018-04-22T20:09:16.199Z,9.10
2018-04-22T20:11:43.711Z,14.10
2018-04-22T20:14:11.229Z,107.07
2018-04-22T20:16:38.992Z,48.07
2018-04-22T20:19:07.095Z,25.57
2018-04-22T20:21:34.632Z,24.90
2018-04-22T20:24:02.948Z,14.87
2018-04-22T20:26:30.569Z,16.33
2018-04-22T20:28:58.179Z,10.47
2018-04-22T20:31:25.884Z,11.97
2018-04-22T20:33:53.483Z,13.23
2018-04-22T20:36:21.241Z,8.63
2018-04-22T20:38:49.617Z,10.37
2018-04-22T20:41:17.985Z,13.27
2018-04-22T20:43:46.564Z,12.60
2018-04-22T20:46:14.323Z,10.37
2018-04-22T20:48:43.425Z,9.60
2018-04-22T20:51:11.292Z,14.47
2018-04-22T20:53:38.855Z,7.27
2018-04-22T20:56:06.417Z,12.00
2018-04-22T20:58:34.177Z,9.13
2018-04-22T21:01:01.646Z,11.40
2018-04-22T21:03:30.295Z,10.10
2018-04-22T21:05:58.708Z,11.47
2018-04-22T21:08:26.276Z,12.03
2018-04-22T21:10:54.038Z,9.57
2018-04-22T21:13:22.620Z,10.63
2018-04-22T21:15:51.415Z,11.90
2018-04-22T21:18:19.072Z,8.03
2018-04-22T21:20:46.647Z,17.60
2018-04-22T21:23:14.537Z,11.03
2018-04-22T21:25:42.793Z,9.80
2018-04-22T21:28:11.059Z,9.47
2018-04-22T21:30:40.360Z,10.37
2018-04-22T21:33:07.924Z,13.47
2018-04-22T21:35:35.492Z,11.43
2018-04-22T21:38:04.080Z,9.33
2018-04-22T21:40:33.013Z,7.47
2018-04-22T21:43:00.725Z,10.97
2018-04-22T21:45:28.495Z,10.40
2018-04-22T21:47:56.068Z,7.77
2018-04-22T21:50:24.741Z,9.97
2018-04-22T21:52:53.121Z,15.77
2018-04-22T21:55:20.880Z,9.70
2018-04-22T21:57:50.186Z,8.03
2018-04-22T22:00:17.960Z,8.80
2018-04-22T22:02:46.229Z,8.73
2018-04-22T22:05:13.988Z,7.27
2018-04-22T22:07:41.658Z,7.10
2018-04-22T22:10:10.028Z,8.00
2018-04-22T22:12:37.492Z,9.80
2018-04-22T22:15:05.128Z,10.63
2018-04-22T22:17:32.717Z,10.43
2018-04-22T22:20:00.340Z,8.93
2018-04-22T22:22:27.808Z,8.70
2018-04-22T22:24:55.377Z,6.77
2018-04-22T22:27:23.160Z,9.80
2018-04-22T22:29:50.820Z,10.40
2018-04-22T22:32:18.379Z,8.57
2018-04-22T22:34:46.143Z,9.80
2018-04-22T22:37:14.499Z,11.60
2018-04-22T22:39:42.424Z,13.00
2018-04-22T22:42:10.056Z,13.13
2018-04-22T22:44:37.820Z,9.77
2018-04-22T22:47:05.480Z,10.23
2018-04-22T22:49:33.148Z,11.47
2018-04-22T22:52:00.889Z,8.17
2018-04-22T22:54:28.577Z,13.53
2018-04-22T22:56:56.647Z,8.63
2018-04-22T22:59:24.304Z,10.23
2018-04-22T23:01:51.969Z,11.50
2018-04-22T23:04:19.741Z,9.03
2018-04-22T23:06:48.212Z,10.70
2018-04-22T23:09:15.757Z,10.23
2018-04-22T23:11:43.848Z,10.07
2018-04-22T23:14:11.316Z,10.50
2018-04-22T23:16:39.890Z,10.00
2018-04-22T23:19:07.656Z,11.43
2018-04-22T23:21:35.420Z,10.57
2018-04-22T23:24:02.985Z,10.80
2018-04-22T23:26:30.753Z,12.30
2018-04-22T23:28:59.029Z,10.50
2018-04-22T23:31:27.344Z,11.60
2018-04-22T23:33:55.272Z,10.97
2018-04-22T23:36:23.652Z,12.67
2018-04-22T23:38:51.629Z,9.97
2018-04-22T23:41:20.027Z,8.13
2018-04-22T23:43:49.019Z,9.23
2018-04-22T23:46:17.241Z,11.17
2018-04-22T23:48:45.140Z,11.00
2018-04-22T23:51:12.717Z,14.73
2018-04-22T23:53:41.184Z,11.23
2018-04-22T23:56:08.744Z,12.17
2018-04-22T23:58:36.507Z,10.67
